createdAt,value
2019-04-29T00:05:00.215Z,99.60
2019-04-29T00:10:08.365Z,99.70
2019-04-29T00:15:15.757Z,99.70
2019-04-29T00:20:22.659Z,99.70
2019-04-29T00:25:27.819Z,99.90
2019-04-29T00:30:33.248Z,99.90
2019-04-29T00:35:38.704Z,99.90
2019-04-29T00:41:03.631Z,99.90
2019-04-29T00:46:09.647Z,99.90
2019-04-29T00:51:14.747Z,99.80
2019-04-29T00:56:19.783Z,99.90
2019-04-29T01:01:26.558Z,99.90
2019-04-29T01:06:31.767Z,99.90
2019-04-29T01:11:36.755Z,99.90
2019-04-29T01:16:41.987Z,99.90
2019-04-29T01:21:47.112Z,99.90
2019-04-29T01:26:54.942Z,99.90
2019-04-29T01:32:00.298Z,99.90
2019-04-29T01:37:05.403Z,99.90
2019-04-29T01:42:12.270Z,99.90
2019-04-29T01:47:17.395Z,99.90
2019-04-29T01:52:22.530Z,99.90
2019-04-29T01:57:27.856Z,99.90
2019-04-29T02:02:33.107Z,99.90
2019-04-29T02:07:38.208Z,99.90
2019-04-29T02:12:43.341Z,99.90
2019-04-29T02:17:48.239Z,99.90
2019-04-29T02:22:54.895Z,99.90
2019-04-29T02:28:00.207Z,99.90
2019-04-29T02:33:05.313Z,99.90
2019-04-29T02:38:12.002Z,99.90
2019-04-29T02:43:27.864Z,99.90
2019-04-29T02:48:34.606Z,99.90
2019-04-29T02:53:40.018Z,99.90
2019-04-29T02:58:55.761Z,99.90
2019-04-29T03:04:05.545Z,99.90
2019-04-29T03:09:10.702Z,99.90
2019-04-29T03:14:15.869Z,99.90
2019-04-29T03:19:22.505Z,99.90
2019-04-29T03:24:27.843Z,99.90
2019-04-29T03:29:33.006Z,99.90
2019-04-29T03:34:38.374Z,99.90
2019-04-29T03:39:43.730Z,99.90
2019-04-29T03:44:48.717Z,99.90
2019-04-29T03:49:53.905Z,99.80
2019-04-29T03:54:59.087Z,99.50
2019-04-29T04:00:10.358Z,99.70
2019-04-29T04:05:23.371Z,99.70
2019-04-29T04:10:28.944Z,99.50
2019-04-29T04:15:34.482Z,99.10
2019-04-29T04:20:39.814Z,99.00
2019-04-29T04:25:45.299Z,99.30
2019-04-29T04:30:50.878Z,99.00
2019-04-29T04:35:56.141Z,99.10
2019-04-29T04:41:02.959Z,99.00
2019-04-29T04:46:08.478Z,98.90
2019-04-29T04:51:14.078Z,98.90
2019-04-29T04:56:19.708Z,98.80
2019-04-29T05:01:25.077Z,98.80
2019-04-29T05:06:30.740Z,99.00
2019-04-29T05:11:36.295Z,99.10
2019-04-29T05:16:41.632Z,98.90
2019-04-29T05:21:47.002Z,98.70
2019-04-29T05:26:52.231Z,98.70
2019-04-29T05:31:57.212Z,98.70
2019-04-29T05:37:16.128Z,98.20
2019-04-29T05:42:21.287Z,98.00
2019-04-29T05:47:28.208Z,97.10
2019-04-29T05:52:39.534Z,96.60
2019-04-29T05:57:41.905Z,95.90
2019-04-29T06:02:47.116Z,95.50
2019-04-29T06:07:56.267Z,95.40
2019-04-29T06:12:58.926Z,95.20
2019-04-29T06:18:04.306Z,94.60
2019-04-29T06:23:09.656Z,93.80
2019-04-29T06:28:14.837Z,93.60
2019-04-29T06:33:24.078Z,93.60
2019-04-29T06:38:26.755Z,93.90
2019-04-29T06:43:32.145Z,93.00
2019-04-29T06:48:37.488Z,92.60
2019-04-29T06:53:42.838Z,93.20
2019-04-29T06:58:49.154Z,92.70
2019-04-29T07:03:55.691Z,91.90
2019-04-29T07:09:01.556Z,91.20
2019-04-29T07:14:06.908Z,90.90
2019-04-29T07:19:11.926Z,90.00
2019-04-29T07:24:20.163Z,89.20
2019-04-29T07:29:29.382Z,87.80
2019-04-29T07:34:33.809Z,87.10
2019-04-29T07:39:37.317Z,85.90
2019-04-29T07:44:44.506Z,84.30
2019-04-29T07:49:51.506Z,82.60
2019-04-29T07:54:57.106Z,78.10
2019-04-29T08:00:02.086Z,76.90
2019-04-29T08:05:10.389Z,76.30
2019-04-29T08:10:23.602Z,77.10
2019-04-29T08:15:22.696Z,72.80
2019-04-29T08:20:27.936Z,72.90
2019-04-29T08:25:33.028Z,69.70
2019-04-29T08:30:41.868Z,69.50
2019-04-29T08:35:46.705Z,67.60
2019-04-29T08:40:52.055Z,66.90
2019-04-29T08:46:07.546Z,66.30
2019-04-29T08:51:12.965Z,64.00
2019-04-29T08:56:18.475Z,60.80
2019-04-29T09:01:24.699Z,59.00
2019-04-29T09:06:32.602Z,56.40
2019-04-29T09:11:36.926Z,56.90
2019-04-29T09:16:42.305Z,58.90
2019-04-29T09:21:49.057Z,57.10
2019-04-29T09:26:58.985Z,57.00
2019-04-29T09:32:05.107Z,56.20
2019-04-29T09:37:10.465Z,54.70
2019-04-29T09:42:26.696Z,55.00
2019-04-29T09:47:32.667Z,53.60
2019-04-29T09:52:37.886Z,52.50
2019-04-29T09:57:43.565Z,53.10
2019-04-29T10:02:50.385Z,53.70
2019-04-29T10:07:55.709Z,52.20
2019-04-29T10:13:01.105Z,52.50
2019-04-29T10:18:10.914Z,50.60
2019-04-29T10:23:16.284Z,49.90
2019-04-29T10:28:21.567Z,49.30
2019-04-29T10:33:27.147Z,50.50
2019-04-29T10:38:32.410Z,49.50
2019-04-29T10:43:53.610Z,47.70
2019-04-29T10:49:03.614Z,50.20
2019-04-29T10:54:06.706Z,49.80
2019-04-29T10:59:11.975Z,48.10
2019-04-29T11:04:17.918Z,47.40
2019-04-29T11:09:31.195Z,47.90
2019-04-29T11:14:37.722Z,47.70
2019-04-29T11:19:43.846Z,46.40
2019-04-29T11:25:06.757Z,46.10
2019-04-29T11:30:14.326Z,45.40
2019-04-29T11:35:24.498Z,46.30
2019-04-29T11:40:42.580Z,46.60
2019-04-29T11:45:38.623Z,46.00
2019-04-29T11:50:45.196Z,46.40
2019-04-29T11:55:52.586Z,46.90
2019-04-29T12:01:03.961Z,45.90
2019-04-29T12:06:10.596Z,46.90
2019-04-29T12:11:16.569Z,47.30
2019-04-29T12:16:29.245Z,47.40
2019-04-29T12:21:36.156Z,47.80
2019-04-29T12:26:44.349Z,45.60
2019-04-29T12:31:58.231Z,46.60
2019-04-29T12:37:05.385Z,46.70
2019-04-29T12:42:28.330Z,46.40
2019-04-29T12:47:34.989Z,46.50
2019-04-29T12:52:40.447Z,46.60
2019-04-29T12:57:45.845Z,48.00
2019-04-29T13:02:59.849Z,46.90
2019-04-29T13:08:15.758Z,46.80
2019-04-29T13:13:22.016Z,45.90
2019-04-29T13:18:29.197Z,46.50
2019-04-29T13:23:39.345Z,46.10
2019-04-29T13:28:59.282Z,47.10
2019-04-29T13:33:51.074Z,46.60
2019-04-29T13:38:55.888Z,47.10
2019-04-29T13:44:07.024Z,47.50
2019-04-29T13:49:17.008Z,47.40
2019-04-29T13:54:22.285Z,47.00
2019-04-29T13:59:42.107Z,47.50
2019-04-29T14:04:49.450Z,48.10
2019-04-29T14:09:54.830Z,48.30
2019-04-29T14:15:00.239Z,48.30
2019-04-29T14:20:10.832Z,47.30
2019-04-29T14:25:14.707Z,47.80
2019-04-29T14:30:21.526Z,47.80
2019-04-29T14:35:47.628Z,48.40
2019-04-29T14:40:50.177Z,48.00
2019-04-29T14:45:56.809Z,48.00
2019-04-29T14:51:02.546Z,49.10
2019-04-29T14:56:07.577Z,48.90
2019-04-29T15:01:17.075Z,48.60
2019-04-29T15:06:22.091Z,49.40
2019-04-29T15:11:31.834Z,49.70
2019-04-29T15:16:40.707Z,49.30
2019-04-29T15:21:48.181Z,49.10
2019-04-29T15:26:53.698Z,49.00
2019-04-29T15:31:58.666Z,49.20
2019-04-29T15:37:04.074Z,49.20
2019-04-29T15:42:09.311Z,49.50
2019-04-29T15:47:14.912Z,48.30
2019-04-29T15:52:20.888Z,48.90
2019-04-29T15:57:27.256Z,49.50
2019-04-29T16:02:35.886Z,50.40
2019-04-29T16:07:46.306Z,50.80
2019-04-29T16:13:05.427Z,49.90
2019-04-29T16:18:14.420Z,50.30
2019-04-29T16:23:17.349Z,50.00
2019-04-29T16:28:31.596Z,50.10
2019-04-29T16:33:32.046Z,50.10
2019-04-29T16:38:37.025Z,50.40
2019-04-29T16:43:44.328Z,50.60
2019-04-29T16:48:49.416Z,50.60
2019-04-29T16:53:54.917Z,51.00
2019-04-29T16:59:08.886Z,51.00
2019-04-29T17:04:07.026Z,50.70
2019-04-29T17:09:22.472Z,51.00
2019-04-29T17:14:20.648Z,51.50
2019-04-29T17:19:26.032Z,51.80
2019-04-29T17:24:31.395Z,52.00
2019-04-29T17:34:58.682Z,51.70
2019-04-29T17:35:14.704Z,51.90
2019-04-29T17:39:56.199Z,51.80
2019-04-29T17:45:10.570Z,51.60
2019-04-29T17:50:30.149Z,51.60
2019-04-29T17:55:46.042Z,51.90
2019-04-29T18:01:08.802Z,52.70
2019-04-29T18:06:24.313Z,53.50
2019-04-29T18:11:26.285Z,53.70
2019-04-29T18:16:39.435Z,54.40
2019-04-29T18:21:56.871Z,54.70
2019-04-29T18:27:09.268Z,55.30
2019-04-29T18:32:15.538Z,55.60
2019-04-29T18:37:21.337Z,56.00
2019-04-29T18:42:27.769Z,56.20
2019-04-29T18:47:35.430Z,56.90
2019-04-29T18:52:40.408Z,57.10
2019-04-29T18:57:45.970Z,57.40
2019-04-29T19:02:57.225Z,58.00
2019-04-29T19:08:11.270Z,58.60
2019-04-29T19:13:12.719Z,59.20
2019-04-29T19:18:17.491Z,60.20
2019-04-29T19:23:22.352Z,61.20
2019-04-29T19:28:31.054Z,61.70
2019-04-29T19:33:35.655Z,62.60
2019-04-29T19:38:43.257Z,63.60
2019-04-29T19:43:54.846Z,64.20
2019-04-29T19:48:58.292Z,65.30
2019-04-29T19:54:01.722Z,65.40
2019-04-29T19:59:26.849Z,66.30
2019-04-29T20:04:40.185Z,66.70
2019-04-29T20:09:48.221Z,67.40
2019-04-29T20:14:58.671Z,67.80
2019-04-29T20:20:17.594Z,68.30
2019-04-29T20:25:31.030Z,69.00
2019-04-29T20:30:30.947Z,69.20
2019-04-29T20:35:40.278Z,69.60
2019-04-29T20:40:43.666Z,70.20
2019-04-29T20:45:49.496Z,70.40
2019-04-29T20:50:56.484Z,71.00
2019-04-29T20:56:10.409Z,71.50
2019-04-29T21:01:11.444Z,72.00
2019-04-29T21:06:17.088Z,72.40
2019-04-29T21:11:25.723Z,72.60
2019-04-29T21:16:32.809Z,73.10
2019-04-29T21:21:41.767Z,73.70
2019-04-29T21:26:46.044Z,74.10
2019-04-29T21:31:58.388Z,74.60
2019-04-29T21:37:01.608Z,74.90
2019-04-29T21:42:17.328Z,75.30
2019-04-29T21:47:25.055Z,75.80
2019-04-29T21:52:30.190Z,76.20
2019-04-29T21:57:35.379Z,76.80
2019-04-29T22:02:41.474Z,77.10
2019-04-29T22:07:47.574Z,77.80
2019-04-29T22:12:58.324Z,77.90
2019-04-29T22:18:01.667Z,78.10
2019-04-29T22:23:12.961Z,78.70
2019-04-29T22:28:15.981Z,79.10
2019-04-29T22:33:20.280Z,79.40
2019-04-29T22:38:25.470Z,80.20
2019-04-29T22:43:54.675Z,81.00
2019-04-29T22:49:01.264Z,81.60
2019-04-29T22:54:25.786Z,82.00
2019-04-29T22:59:30.722Z,82.70
2019-04-29T23:04:35.991Z,83.10
2019-04-29T23:09:41.646Z,83.50
2019-04-29T23:14:47.822Z,84.20
2019-04-29T23:19:55.131Z,84.80
2019-04-29T23:25:05.669Z,85.10
2019-04-29T23:30:13.571Z,85.10
2019-04-29T23:35:20.015Z,85.50
2019-04-29T23:40:25.589Z,85.90
2019-04-29T23:45:30.769Z,86.20
2019-04-29T23:50:36.111Z,86.40
2019-04-29T23:55:41.370Z,87.10
